Latest Coastal Weather Observations for Maningrida Airport

IDD60701

Issued at 8:51 am CST Monday 15 February 2016 (issued every 10 minutes, with the page automatically refreshed every 10 minutes)

About coastal observations | Map of coastal stations | Coastal observations for NT | Marine services | Other Formats
Station Details ID: 014405 Name: MANINGRIDA AIRPORT Lat: -12.06 Lon: 134.23 Height: 28.1 m
Data from the previous 72 hours. | See also: Recent months at Maningrida Airport
Date/Time
CST
Temp

°C
Wind Pressure Rain
since 9am
mm
Weather Cloud Vis
km
Sea
Height
m
Swell
Dir
 
Speed
knots
Gust
knots
hPa Trend Height
m
Period
s
Dir
15/08:30am 29.2 WNW 4 6 1009.9 - 3.8 - - 10 - - - -
15/08:00am 28.2 WNW 4 5 1009.4 - 3.8 - - 10 - - - -
15/07:30am 26.4 WNW 3 4 1009.0 - 3.8 - - - - - - -
15/07:00am 25.1 CALM 0 0 1008.7 - 3.8 - - - - - - -
15/06:30am 24.8 CALM 0 0 1008.4 - 3.8 - - - - - - -
15/06:00am 25.0 CALM 0 0 1008.0 - 3.8 - - - - - - -
15/05:30am 25.0 CALM 0 0 1008.0 - 3.8 - - - - - - -
15/05:00am 25.3 CALM 0 0 1007.9 - 3.8 - - - - - - -
15/04:30am 25.3 CALM 0 0 1007.8 - 3.8 - - 10 - - - -
15/04:00am 25.3 CALM 0 0 1007.6 - 3.8 - - 10 - - - -
15/03:30am 25.3 SSW 2 4 1007.5 - 3.8 - - 10 - - - -
15/03:00am 25.6 SSW 3 5 1007.2 - 3.8 - - 10 - - - -
15/02:30am 25.4 WSW 3 5 1007.5 - 3.8 - - 10 - - - -
15/02:00am 25.5 W 3 4 1007.9 - 3.8 - - - - - - -
15/01:30am 25.3 CALM 0 0 1008.3 - 3.8 - - 10 - - - -
15/01:00am 25.2 SW 3 4 1008.6 - 3.8 - - 10 - - - -
15/12:30am 25.7 S 3 4 1008.8 - 3.8 - - 10 - - - -
15/12:00am 25.6 S 4 4 1009.3 - 3.8 - - 10 - - - -
 
Date/Time
CST
Temp

°C
Wind Pressure Rain
since 9am
mm
Weather Cloud Vis
km
Sea
Height
m
Swell
Dir
 
Speed
knots
Gust
knots
hPa Trend Height
m
Period
s
Dir
14/11:30pm 25.8 SSE 4 4 1009.6 - 3.8 - - 10 - - - -
14/11:00pm 25.9 SSW 3 5 1009.8 - 3.8 - - 10 - - - -
14/10:30pm 26.1 SW 4 6 1009.9 - 3.8 - - 10 - - - -
14/10:00pm 26.2 SW 3 5 1009.5 - 3.8 - - 10 - - - -
14/09:30pm 26.6 SW 5 6 1009.1 - 3.8 - - 10 - - - -
14/09:00pm 27.0 WSW 4 6 1008.5 - 3.8 - Mostly clear 10 - - - -
14/08:30pm 27.5 SW 2 4 1008.2 - 3.8 - - 10 - - - -
14/08:00pm 27.6 NW 6 8 1007.8 - 3.8 - - 10 - - - -
14/07:30pm 28.6 NNW 5 8 1007.3 - 3.8 - - 10 - - - -
14/07:00pm 28.6 NNW 5 8 1006.6 - 3.8 - Partly cloudy 10 - - - -
14/06:30pm 28.1 WNW 7 11 1006.0 - 3.8 - Cloudy 10 - - - -
14/06:00pm 28.4 E 7 11 1007.2 - 3.8 Showers Cloudy 10 - - - -
14/05:30pm 29.7 ENE 12 19 1006.0 - 3.8 - Partly cloudy 10 - - - -
14/05:00pm 32.3 N 12 16 1004.8 - 3.8 - Partly cloudy 10 - - - -
14/04:30pm 32.1 N 12 17 1004.3 - 3.8 - - 10 - - - -
14/04:00pm 32.5 N 9 13 1004.2 - 3.8 - - 10 - - - -
14/03:30pm 31.2 N 7 10 1004.7 - 3.8 - Partly cloudy 10 - - - -
14/03:22pm 30.9 NNE 6 9 1004.9 - 3.8 - Partly cloudy 10 - - - -
14/03:01pm 30.4 N 10 16 1005.4 - 2.0 - Partly cloudy 5 - - - -
14/03:00pm 30.7 N 10 13 1005.5 - 1.4 Rain Cloudy 6 - - - -
14/02:30pm 32.6 N 11 14 1005.4 - 0.0 - Partly cloudy 10 - - - -
14/02:00pm 32.7 NNW 13 16 1005.9 - 0.0 - Partly cloudy 10 - - - -
14/01:30pm 33.7 N 10 14 1006.3 - 0.0 - Partly cloudy 10 - - - -
14/01:00pm 33.7 N 9 13 1006.5 - 0.0 - - 10 - - - -
14/12:30pm 34.6 NNW 7 10 1006.8 - 0.0 - - 10 - - - -
14/12:00pm 34.6 WNW 7 11 1007.3 - 0.0 - - 10 - - - -
14/11:30am 33.8 WNW 6 10 1007.6 - 0.0 - - 10 - - - -
14/11:00am 33.4 SSW 4 8 1007.8 - 0.0 - - 10 - - - -
14/10:30am 32.6 W 7 11 1008.2 - 0.0 - - 10 - - - -
14/10:00am 32.0 WNW 7 11 1008.4 - 0.0 - - 10 - - - -
14/09:30am 31.7 WSW 6 9 1008.6 - 0.0 - - 10 - - - -
14/09:00am 30.7 WSW 7 11 1008.5 - 0.0 - - 10 - - - -
14/08:30am 29.8 WSW 5 8 1008.6 - 0.0 - - 10 - - - -
14/08:00am 28.9 WSW 6 9 1008.2 - 0.0 - - - - - - -
14/07:30am 27.8 W 5 8 1008.0 - 0.0 - - - - - - -
14/07:00am 27.1 W 4 9 1007.6 - 0.0 - - - - - - -
14/06:30am 26.9 WSW 4 6 1007.3 - 0.0 - - - - - - -
14/06:00am 26.9 WSW 4 6 1006.9 - 0.0 - - - - - - -
14/05:30am 26.9 WSW 4 5 1006.7 - 0.0 - - - - - - -
14/05:00am 27.1 WSW 4 6 1006.5 - 0.0 - - - - - - -
14/04:30am 26.7 WSW 3 5 1006.4 - 0.0 - - - - - - -
14/04:00am 27.1 W 4 6 1006.3 - 0.0 - - - - - - -
14/03:30am 26.9 W 3 5 1006.4 - 0.0 - - - - - - -
14/03:00am 26.5 SW 3 4 1006.7 - 0.0 - - - - - - -
14/02:30am 26.5 CALM 0 0 1007.0 - 0.0 - - - - - - -
14/02:00am 26.8 CALM 0 3 1007.3 - 0.0 - - - - - - -
14/01:30am 27.0 SW 3 4 1007.6 - 0.0 - - - - - - -
14/01:00am 27.0 CALM 0 0 1007.8 - 0.0 - - - - - - -
14/12:30am 27.0 SSE 1 3 1008.2 - 0.0 - - - - - - -
14/12:00am 27.2 CALM 0 2 1008.4 - 0.0 - - - - - - -
 
Date/Time
CST
Temp

°C
Wind Pressure Rain
since 9am
mm
Weather Cloud Vis
km
Sea
Height
m
Swell
Dir
 
Speed
knots
Gust
knots
hPa Trend Height
m
Period
s
Dir
13/11:30pm 27.2 SE 3 4 1008.5 - 0.0 - - - - - - -
13/11:00pm 27.6 CALM 0 0 1008.5 - 0.0 - - 10 - - - -
13/10:30pm 27.8 CALM 0 0 1008.6 - 0.0 - - 10 - - - -
13/10:00pm 28.7 NW 1 4 1008.4 - 0.0 - - 10 - - - -
13/09:30pm 29.8 N 5 7 1007.9 - 0.0 - - 10 - - - -
13/09:00pm 29.9 N 6 7 1007.6 - 0.0 - - 10 - - - -
13/08:30pm 30.0 N 5 7 1007.1 - 0.0 - - 10 - - - -
13/08:00pm 30.3 N 5 7 1007.0 - 0.0 - - 10 - - - -
13/07:30pm 30.4 N 7 10 1006.7 - 0.0 - - 10 - - - -
13/07:00pm 30.8 N 8 11 1006.6 - 0.0 - - 10 - - - -
13/06:30pm 31.2 N 9 11 1006.2 - 0.0 - - 10 - - - -
13/06:00pm 32.2 NNW 8 10 1005.7 - 0.0 - Mostly clear 10 - - - -
13/05:30pm 32.5 N 8 11 1005.5 - 0.0 - Partly cloudy 10 - - - -
13/05:00pm 33.1 N 9 12 1005.1 - 0.0 - Partly cloudy 10 - - - -
13/04:30pm 33.5 N 9 11 1004.9 - 0.0 - Partly cloudy 10 - - - -
13/04:00pm 33.7 N 5 7 1005.0 - 0.0 - Partly cloudy 10 - - - -
13/03:30pm 33.2 NNE 6 7 1005.1 - 0.0 - Partly cloudy 10 - - - -
13/03:00pm 32.6 N 5 8 1005.4 - 0.0 - Cloudy 10 - - - -
13/02:30pm 32.6 NNE 7 10 1005.7 - 0.0 - Partly cloudy 10 - - - -
13/02:00pm 33.7 N 8 11 1005.5 - 0.0 - Partly cloudy 10 - - - -
13/01:30pm 34.1 NNW 8 10 1005.7 - 0.0 - Partly cloudy 10 - - - -
13/01:00pm 34.1 NNW 8 11 1006.1 - 0.0 - - 10 - - - -
13/12:30pm 33.8 WNW 6 9 1006.4 - 0.0 - - 10 - - - -
13/12:00pm 34.1 SW 5 10 1006.9 - 0.0 - - 10 - - - -
13/11:30am 33.0 SSW 3 5 1007.5 - 0.0 - - 10 - - - -
13/11:00am 32.2 S 5 7 1008.0 - 0.0 - - 10 - - - -
13/10:30am 31.7 WSW 5 8 1008.3 - 0.0 - - 10 - - - -
13/10:00am 30.7 SSW 7 9 1008.7 - 0.0 - - 10 - - - -
13/09:30am 29.9 SW 5 7 1008.7 - 0.0 - - - - - - -
13/09:00am 29.4 SW 5 8 1008.6 - 0.0 - Mostly cloudy - - - - -
13/08:30am 28.6 SSW 5 9 1008.5 - 0.0 - - - - - - -
13/08:00am 27.9 SSW 4 6 1008.0 - 0.0 - - - - - - -
13/07:30am 27.0 SSW 3 5 1007.9 - 0.0 - - - - - - -
13/07:00am 26.7 SW 4 5 1008.0 - 0.0 - - - - - - -
13/06:30am 26.5 SSW 2 3 1007.8 - 0.0 - - - - - - -
13/06:00am 26.3 CALM 0 3 1007.9 - 0.0 - Partly cloudy - - - - -
13/05:30am 26.4 S 3 4 1007.4 - 0.0 - Partly cloudy - - - - -
13/05:00am 26.3 S 1 4 1007.1 - 0.0 - Partly cloudy - - - - -
13/04:30am 26.4 SSE 4 5 1006.7 - 0.0 - - - - - - -
13/04:00am 26.6 SSE 3 5 1006.5 - 0.0 - Partly cloudy - - - - -
13/03:30am 26.7 SSE 3 4 1006.7 - 0.0 - - - - - - -
13/03:00am 26.7 SSW 3 4 1006.2 - 0.0 - Mostly cloudy - - - - -
13/02:30am 26.8 SSW 4 5 1005.9 - 0.0 - - - - - - -
13/02:00am 27.0 SSW 3 5 1006.4 - 0.0 - Partly cloudy - - - - -
13/01:30am 27.1 CALM 0 0 1007.2 - 0.0 - Partly cloudy - - - - -
13/01:00am 27.1 CALM 0 2 1007.5 - 0.0 - Partly cloudy - - - - -
13/12:30am 27.1 SE 3 4 1007.9 - 0.0 - Partly cloudy - - - - -
13/12:00am 27.3 CALM 0 0 1007.9 - 0.0 - Cloudy - - - - -
 
Date/Time
CST
Temp

°C
Wind Pressure Rain
since 9am
mm
Weather Cloud Vis
km
Sea
Height
m
Swell
Dir
 
Speed
knots
Gust
knots
hPa Trend Height
m
Period
s
Dir
12/11:30pm 27.0 SSE 4 6 1007.9 - 0.0 - Partly cloudy - - - - -
12/11:00pm 27.0 S 6 8 1007.8 - 0.0 - Partly cloudy - - - - -
12/10:30pm 28.0 S 6 9 1007.9 - 0.0 - Partly cloudy 10 - - - -
12/10:00pm 28.2 S 6 9 1007.8 - 0.0 - Partly cloudy 10 - - - -
12/09:30pm 28.7 S 2 8 1007.6 - 0.0 - Partly cloudy 10 - - - -
12/09:00pm 29.0 SW 3 4 1007.6 - 0.0 - Partly cloudy 10 - - - -
12/08:30pm 29.1 W 3 5 1007.0 - 0.0 - Partly cloudy 10 - - - -
12/08:00pm 29.3 WNW 4 6 1006.4 - 0.0 - - 10 - - - -
12/07:30pm 29.3 WNW 4 6 1005.8 - 0.0 - - 10 - - - -
12/07:00pm 29.5 WNW 5 9 1006.2 - 0.0 - Partly cloudy 10 - - - -
12/06:30pm 29.8 WNW 7 11 1006.1 - 0.0 - - 10 - - - -
12/06:00pm 30.0 NNW 11 15 1005.3 - 0.0 - Mostly clear 10 - - - -
12/05:30pm 30.9 NNW 12 15 1005.0 - 0.0 - - 10 - - - -
12/05:00pm 31.1 N 11 15 1004.9 - 0.0 - Partly cloudy 10 - - - -
12/04:30pm 31.0 N 10 13 1004.9 - 0.0 - Partly cloudy 10 - - - -
12/04:00pm 32.1 N 11 13 1004.9 - 0.0 - Partly cloudy 10 - - - -
12/03:30pm 31.9 N 10 14 1004.9 - 0.0 - - 10 - - - -
12/03:00pm 31.5 NNW 9 11 1004.7 - 0.0 - - 10 - - - -
12/02:30pm 32.7 NE 5 8 1005.1 - 0.0 - Partly cloudy 10 - - - -
12/02:00pm 31.5 SE 8 10 1005.6 - 0.0 - Partly cloudy 10 - - - -
12/01:30pm 31.7 S 5 6 1005.8 - 0.0 - Partly cloudy 10 - - - -
12/01:00pm 32.3 NNW 5 8 1006.4 - 0.0 - Partly cloudy 10 - - - -
12/12:30pm 32.1 NNW 8 11 1006.6 - 0.0 - - 10 - - - -
12/12:00pm 32.0 NNW 7 9 1007.1 - 0.0 - - 10 - - - -
12/11:30am 32.0 NNW 8 11 1007.6 - 0.0 - - 10 - - - -
12/11:00am 31.3 NNW 7 9 1007.8 - 0.0 - - 10 - - - -
12/10:30am 31.3 NNW 6 9 1008.0 - 0.0 - Partly cloudy 10 - - - -
12/10:00am 30.9 NNW 5 11 1008.4 - 0.0 - Partly cloudy 10 - - - -
12/09:30am 30.8 ENE 3 4 1008.4 - 0.0 - - 10 - - - -
12/09:00am 30.1 E 2 4 1008.3 - 13.0 - - 10 - - - -

Other Formats:

Comma delimited format used in spreadsheet applications
http://www.bom.gov.au/fwo/IDD60701/IDD60701.95142.axf

JavaScript Object Notation format (JSON) in row-major order
http://www.bom.gov.au/fwo/IDD60701/IDD60701.95142.json